To NAV CANADA Home Page Login to a new session Search on AWWS site Disclaimer Vers la page française équivalente Tips FAQ What's new on the site To the Forecasts and Observations / NOTAM section To "File a Flight Plan" website Publications and other links Update of the User's profile FIC Telephone Numbers My Weather Data Folder Route Weather Data Regional Weather Data Local Weather Data To the Forecasts and Observations / NOTAM section
Request Generated 04/24/2019 at 16:01:49 UTC . Weather information available at that time is displayed.

METAR/TAF

ILES-DE-LA-MADELEINE/QC    

SPECI CYGR 241539Z 08018G25KT 4SM -RA BR OVC005 01/01 A2972 RMK SF8 SLP066=
METAR CYGR 241500Z 07016G22KT 1 3/4SM -RA BR OVC005 01/01 A2971 RMK SF8 SLP062=
SPECI CYGR 241436Z 08016G23KT 2SM -RA BR OVC004 01/00 A2972 RMK SF8 SLP065=
METAR CYGR 241400Z CCA 07018KT 1 3/4SM -RA BR OVC004 01/00 A2970 RMK SF8 OBS TAKEN +10 SLP059=
METAR CYGR 241400Z 07018KT 1 3/4SM -RA BR OVC004 01/00 A2970 RMK SF8 SLP059=
SPECI CYGR 241329Z 08016KT 1 3/4SM -RA BR OVC004 01/00 A2970 RMK SF8 SLP059=
SPECI CYGR 241315Z 08016KT 1 3/4SM -RA BR OVC005 01/00 A2969 RMK SF8 SLP057=
SPECI CYGR 241307Z 07014G19KT 2SM -RA BR OVC005 01/00 A2969 RMK SF8 SLP055=
METAR CYGR 241300Z 08015KT 3SM -RA BR OVC005 01/00 A2969 RMK SF8 VIS VRB 2-4 SLP055=

TAF CYGR 241339Z 2414/2502 07012G22KT 11/2SM -RA BR OVC004 TEMPO
2414/2416 6SM BR OVC008
FM241600 06015G25KT 6SM BR OVC008 TEMPO 2416/2422 2SM -DZ -RA BR
OVC005
FM242200 06018G28KT 3SM -RASN BR BKN005 OVC012
RMK NXT FCST BY 242000Z=
Your time UTC time
Weather data provided by Environment Canada and NAV CANADA